sensor_id;sensor_type;location;lat;lon;timestamp;pressure;altitude;pressure_sealevel;temperature;humidity
21760;BME280;11041;50.854;20.580;2023-08-30T00:00:46;97635.25;;;18.18;100.00
21760;BME280;11041;50.854;20.580;2023-08-30T00:03:34;97635.25;;;18.18;100.00
21760;BME280;11041;50.854;20.580;2023-08-30T00:06:10;97622.16;;;18.15;100.00
21760;BME280;11041;50.854;20.580;2023-08-30T00:08:39;97622.56;;;18.17;100.00
21760;BME280;11041;50.854;20.580;2023-08-30T00:11:12;97616.59;;;18.19;100.00
21760;BME280;11041;50.854;20.580;2023-08-30T00:13:45;97614.63;;;18.19;100.00
21760;BME280;11041;50.854;20.580;2023-08-30T00:16:16;97608.66;;;18.21;100.00
21760;BME280;11041;50.854;20.580;2023-08-30T00:18:46;97615.03;;;18.21;100.00
21760;BME280;11041;50.854;20.580;2023-08-30T00:21:19;97624.94;;;18.19;100.00
21760;BME280;11041;50.854;20.580;2023-08-30T00:23:55;97628.50;;;18.19;100.00
21760;BME280;11041;50.854;20.580;2023-08-30T00:26:26;97626.53;;;18.16;100.00
21760;BME280;11041;50.854;20.580;2023-08-30T00:28:57;97634.44;;;18.10;100.00
21760;BME280;11041;50.854;20.580;2023-08-30T00:31:29;97631.63;;;18.00;100.00
21760;BME280;11041;50.854;20.580;2023-08-30T00:34:02;97626.06;;;17.96;100.00
21760;BME280;11041;50.854;20.580;2023-08-30T00:36:34;97630.03;;;17.99;100.00
21760;BME280;11041;50.854;20.580;2023-08-30T00:39:06;97616.53;;;18.01;100.00
21760;BME280;11041;50.854;20.580;2023-08-30T00:41:38;97625.31;;;18.06;100.00
21760;BME280;11041;50.854;20.580;2023-08-30T00:44:10;97628.47;;;18.08;100.00
21760;BME280;11041;50.854;20.580;2023-08-30T00:46:41;97620.94;;;18.13;100.00
21760;BME280;11041;50.854;20.580;2023-08-30T00:49:16;97620.97;;;18.16;100.00
21760;BME280;11041;50.854;20.580;2023-08-30T00:51:50;97619.38;;;18.19;100.00
21760;BME280;11041;50.854;20.580;2023-08-30T00:54:24;97613.41;;;18.17;100.00
21760;BME280;11041;50.854;20.580;2023-08-30T00:56:58;97609.81;;;18.13;100.00
21760;BME280;11041;50.854;20.580;2023-08-30T00:59:29;97601.09;;;18.10;100.00
21760;BME280;11041;50.854;20.580;2023-08-30T01:02:04;97606.66;;;18.07;100.00
21760;BME280;11041;50.854;20.580;2023-08-30T01:04:39;97604.66;;;18.04;100.00
21760;BME280;11041;50.854;20.580;2023-08-30T01:07:08;97604.25;;;18.02;100.00
21760;BME280;11041;50.854;20.580;2023-08-30T01:09:41;97605.84;;;18.03;100.00
21760;BME280;11041;50.854;20.580;2023-08-30T01:12:24;97608.22;;;18.04;100.00
21760;BME280;11041;50.854;20.580;2023-08-30T01:15:12;97598.66;;;17.95;100.00
21760;BME280;11041;50.854;20.580;2023-08-30T01:17:48;97602.59;;;17.86;100.00
21760;BME280;11041;50.854;20.580;2023-08-30T01:20:23;97605.78;;;17.85;100.00
21760;BME280;11041;50.854;20.580;2023-08-30T01:23:07;97598.66;;;17.91;100.00
21760;BME280;11041;50.854;20.580;2023-08-30T01:26:12;97596.31;;;17.97;100.00
21760;BME280;11041;50.854;20.580;2023-08-30T01:28:45;97595.50;;;18.03;100.00
21760;BME280;11041;50.854;20.580;2023-08-30T01:31:19;97597.53;;;18.06;100.00
21760;BME280;11041;50.854;20.580;2023-08-30T01:33:52;97603.44;;;18.08;100.00
21760;BME280;11041;50.854;20.580;2023-08-30T01:36:26;97599.06;;;18.00;100.00
21760;BME280;11041;50.854;20.580;2023-08-30T01:38:58;97597.50;;;17.99;100.00
21760;BME280;11041;50.854;20.580;2023-08-30T01:41:35;97597.47;;;17.96;100.00
21760;BME280;11041;50.854;20.580;2023-08-30T01:44:06;97593.53;;;17.97;100.00
21760;BME280;11041;50.854;20.580;2023-08-30T01:46:37;97599.88;;;17.97;100.00
21760;BME280;11041;50.854;20.580;2023-08-30T01:49:10;97595.88;;;17.98;100.00
21760;BME280;11041;50.854;20.580;2023-08-30T01:51:43;97598.69;;;18.02;100.00
21760;BME280;11041;50.854;20.580;2023-08-30T01:54:17;97589.97;;;18.07;100.00
21760;BME280;11041;50.854;20.580;2023-08-30T01:56:53;97577.25;;;18.13;100.00
21760;BME280;11041;50.854;20.580;2023-08-30T01:59:24;97575.69;;;18.19;100.00
21760;BME280;11041;50.854;20.580;2023-08-30T02:01:58;97583.63;;;18.24;100.00
21760;BME280;11041;50.854;20.580;2023-08-30T02:04:31;97576.09;;;18.28;100.00
21760;BME280;11041;50.854;20.580;2023-08-30T02:07:08;97572.53;;;18.31;100.00
21760;BME280;11041;50.854;20.580;2023-08-30T02:09:49;97567.75;;;18.32;100.00
21760;BME280;11041;50.854;20.580;2023-08-30T02:12:23;97558.25;;;18.33;100.00
21760;BME280;11041;50.854;20.580;2023-08-30T02:14:55;97560.59;;;18.35;100.00
21760;BME280;11041;50.854;20.580;2023-08-30T02:17:26;97556.25;;;18.34;100.00
21760;BME280;11041;50.854;20.580;2023-08-30T02:19:57;97561.78;;;18.30;100.00
21760;BME280;11041;50.854;20.580;2023-08-30T02:22:26;97553.44;;;18.30;100.00
21760;BME280;11041;50.854;20.580;2023-08-30T02:24:57;97545.09;;;18.30;100.00
21760;BME280;11041;50.854;20.580;2023-08-30T02:27:30;97544.72;;;18.28;100.00
21760;BME280;11041;50.854;20.580;2023-08-30T02:30:01;97551.50;;;18.30;100.00
21760;BME280;11041;50.854;20.580;2023-08-30T02:32:35;97542.72;;;18.32;100.00
21760;BME280;11041;50.854;20.580;2023-08-30T02:35:06;97548.72;;;18.38;100.00
21760;BME280;11041;50.854;20.580;2023-08-30T02:37:38;97561.41;;;18.42;100.00
21760;BME280;11041;50.854;20.580;2023-08-30T02:40:14;97559.44;;;18.43;100.00
21760;BME280;11041;50.854;20.580;2023-08-30T02:42:49;97563.00;;;18.43;100.00
21760;BME280;11041;50.854;20.580;2023-08-30T02:45:21;97560.22;;;18.40;100.00
21760;BME280;11041;50.854;20.580;2023-08-30T02:47:55;97565.78;;;18.36;100.00
21760;BME280;11041;50.854;20.580;2023-08-30T02:50:25;97553.88;;;18.28;100.00
21760;BME280;11041;50.854;20.580;2023-08-30T02:53:00;97554.25;;;18.27;100.00
21760;BME280;11041;50.854;20.580;2023-08-30T02:55:38;97555.03;;;18.27;100.00
21760;BME280;11041;50.854;20.580;2023-08-30T02:58:08;97561.00;;;18.26;100.00
21760;BME280;11041;50.854;20.580;2023-08-30T03:00:40;97557.41;;;18.25;100.00
21760;BME280;11041;50.854;20.580;2023-08-30T03:03:10;97555.84;;;18.24;100.00
21760;BME280;11041;50.854;20.580;2023-08-30T03:05:41;97559.81;;;18.27;100.00
21760;BME280;11041;50.854;20.580;2023-08-30T03:08:10;97554.66;;;18.29;100.00
21760;BME280;11041;50.854;20.580;2023-08-30T03:10:42;97547.88;;;18.30;100.00
21760;BME280;11041;50.854;20.580;2023-08-30T03:13:18;97544.31;;;18.29;100.00
21760;BME280;11041;50.854;20.580;2023-08-30T03:15:52;97549.50;;;18.31;100.00
21760;BME280;11041;50.854;20.580;2023-08-30T03:18:27;97553.44;;;18.30;100.00
21760;BME280;11041;50.854;20.580;2023-08-30T03:21:03;97551.88;;;18.29;100.00
21760;BME280;11041;50.854;20.580;2023-08-30T03:23:35;97551.09;;;18.28;100.00
21760;BME280;11041;50.854;20.580;2023-08-30T03:26:12;97559.81;;;18.27;100.00
21760;BME280;11041;50.854;20.580;2023-08-30T03:28:41;97557.03;;;18.27;100.00
21760;BME280;11041;50.854;20.580;2023-08-30T03:31:19;97557.44;;;18.29;100.00
21760;BME280;11041;50.854;20.580;2023-08-30T03:33:54;97553.88;;;18.28;100.00
21760;BME280;11041;50.854;20.580;2023-08-30T03:36:24;97554.66;;;18.29;100.00
21760;BME280;11041;50.854;20.580;2023-08-30T03:38:54;97562.97;;;18.33;100.00
21760;BME280;11041;50.854;20.580;2023-08-30T03:41:24;97562.22;;;18.36;100.00
21760;BME280;11041;50.854;20.580;2023-08-30T03:43:57;97559.03;;;18.37;100.00
21760;BME280;11041;50.854;20.580;2023-08-30T03:46:31;97568.56;;;18.43;100.00
21760;BME280;11041;50.854;20.580;2023-08-30T03:49:12;97569.75;;;18.46;100.00
21760;BME280;11041;50.854;20.580;2023-08-30T03:51:44;97571.34;;;18.47;100.00
21760;BME280;11041;50.854;20.580;2023-08-30T03:54:14;97573.75;;;18.48;100.00
21760;BME280;11041;50.854;20.580;2023-08-30T03:56:54;97568.19;;;18.45;100.00
21760;BME280;11041;50.854;20.580;2023-08-30T03:59:37;97563.81;;;18.40;100.00
21760;BME280;11041;50.854;20.580;2023-08-30T04:02:07;97565.00;;;18.36;100.00
21760;BME280;11041;50.854;20.580;2023-08-30T04:04:51;97565.38;;;18.34;100.00
21760;BME280;11041;50.854;20.580;2023-08-30T04:07:24;97564.59;;;18.34;100.00
21760;BME280;11041;50.854;20.580;2023-08-30T04:09:57;97568.53;;;18.33;100.00
21760;BME280;11041;50.854;20.580;2023-08-30T04:12:32;97573.34;;;18.36;100.00
21760;BME280;11041;50.854;20.580;2023-08-30T04:15:06;97569.38;;;18.40;100.00
21760;BME280;11041;50.854;20.580;2023-08-30T04:17:42;97568.97;;;18.45;100.00
21760;BME280;11041;50.854;20.580;2023-08-30T04:20:20;97561.41;;;18.49;100.00
21760;BME280;11041;50.854;20.580;2023-08-30T04:22:48;97561.41;;;18.49;100.00
21760;BME280;11041;50.854;20.580;2023-08-30T04:25:19;97559.84;;;18.45;100.00
21760;BME280;11041;50.854;20.580;2023-08-30T04:27:52;97559.81;;;18.41;100.00
21760;BME280;11041;50.854;20.580;2023-08-30T04:30:30;97553.84;;;18.39;100.00
21760;BME280;11041;50.854;20.580;2023-08-30T04:33:03;97556.66;;;18.36;100.00
21760;BME280;11041;50.854;20.580;2023-08-30T04:35:41;97553.09;;;18.35;100.00
21760;BME280;11041;50.854;20.580;2023-08-30T04:38:10;97553.47;;;18.34;100.00
21760;BME280;11041;50.854;20.580;2023-08-30T04:40:45;97547.91;;;18.34;100.00
21760;BME280;11041;50.854;20.580;2023-08-30T04:43:16;97547.53;;;18.35;100.00
21760;BME280;11041;50.854;20.580;2023-08-30T04:45:53;97551.47;;;18.41;100.00
21760;BME280;11041;50.854;20.580;2023-08-30T04:48:22;97547.50;;;18.46;100.00
21760;BME280;11041;50.854;20.580;2023-08-30T04:51:07;97553.47;;;18.51;100.00
21760;BME280;11041;50.854;20.580;2023-08-30T04:53:44;97554.66;;;18.54;100.00
21760;BME280;11041;50.854;20.580;2023-08-30T04:56:17;97549.09;;;18.54;100.00
21760;BME280;11041;50.854;20.580;2023-08-30T04:58:49;97551.88;;;18.54;100.00
21760;BME280;11041;50.854;20.580;2023-08-30T05:01:21;97554.28;;;18.56;100.00
21760;BME280;11041;50.854;20.580;2023-08-30T05:03:52;97558.25;;;18.58;100.00
21760;BME280;11041;50.854;20.580;2023-08-30T05:06:31;97552.69;;;18.55;100.00
21760;BME280;11041;50.854;20.580;2023-08-30T05:09:08;97551.88;;;18.50;100.00
21760;BME280;11041;50.854;20.580;2023-08-30T05:11:47;97562.63;;;18.48;100.00
21760;BME280;11041;50.854;20.580;2023-08-30T05:14:25;97547.91;;;18.44;100.00
21760;BME280;11041;50.854;20.580;2023-08-30T05:16:54;97551.06;;;18.39;100.00
21760;BME280;11041;50.854;20.580;2023-08-30T05:19:22;97548.31;;;18.36;100.00
21760;BME280;11041;50.854;20.580;2023-08-30T05:21:53;97553.47;;;18.37;100.00
21760;BME280;11041;50.854;20.580;2023-08-30T05:24:23;97551.06;;;18.39;100.00
21760;BME280;11041;50.854;20.580;2023-08-30T05:27:01;97566.19;;;18.45;100.00
21760;BME280;11041;50.854;20.580;2023-08-30T05:29:31;97569.38;;;18.51;100.00
21760;BME280;11041;50.854;20.580;2023-08-30T05:32:11;97570.97;;;18.59;100.00
21760;BME280;11041;50.854;20.580;2023-08-30T05:34:54;97575.72;;;18.62;100.00
21760;BME280;11041;50.854;20.580;2023-08-30T05:37:36;97572.56;;;18.60;100.00
21760;BME280;11041;50.854;20.580;2023-08-30T05:40:05;97572.56;;;18.60;100.00
21760;BME280;11041;50.854;20.580;2023-08-30T05:42:40;97575.31;;;18.57;100.00
21760;BME280;11041;50.854;20.580;2023-08-30T05:45:07;97580.09;;;18.56;100.00
21760;BME280;11041;50.854;20.580;2023-08-30T05:47:34;97585.28;;;18.58;100.00
21760;BME280;11041;50.854;20.580;2023-08-30T05:50:06;97587.66;;;18.63;100.00
21760;BME280;11041;50.854;20.580;2023-08-30T05:52:34;97582.91;;;18.67;100.00
21760;BME280;11041;50.854;20.580;2023-08-30T05:55:02;97588.06;;;18.72;100.00
21760;BME280;11041;50.854;20.580;2023-08-30T05:57:37;97594.03;;;18.78;100.00
21760;BME280;11041;50.854;20.580;2023-08-30T06:00:06;97592.03;;;18.85;100.00
21760;BME280;11041;50.854;20.580;2023-08-30T06:02:36;97591.25;;;18.88;100.00
21760;BME280;11041;50.854;20.580;2023-08-30T06:05:04;97592.03;;;18.85;100.00
21760;BME280;11041;50.854;20.580;2023-08-30T06:07:32;97591.25;;;18.85;100.00
21760;BME280;11041;50.854;20.580;2023-08-30T06:09:59;97594.84;;;18.89;100.00
21760;BME280;11041;50.854;20.580;2023-08-30T06:12:29;97598.00;;;18.87;100.00
21760;BME280;11041;50.854;20.580;2023-08-30T06:14:57;97593.66;;;18.86;100.00
21760;BME280;11041;50.854;20.580;2023-08-30T06:17:24;97592.03;;;18.85;100.00
21760;BME280;11041;50.854;20.580;2023-08-30T06:19:50;97600.78;;;18.87;100.00
21760;BME280;11041;50.854;20.580;2023-08-30T06:22:18;97601.59;;;18.91;100.00
21760;BME280;11041;50.854;20.580;2023-08-30T06:24:44;97600.41;;;18.96;100.00
21760;BME280;11041;50.854;20.580;2023-08-30T06:27:12;97603.97;;;19.04;100.00
21760;BME280;11041;50.854;20.580;2023-08-30T06:29:41;97610.34;;;19.08;100.00
21760;BME280;11041;50.854;20.580;2023-08-30T06:32:17;97606.34;;;19.12;100.00
21760;BME280;11041;50.854;20.580;2023-08-30T06:34:45;97607.94;;;19.17;100.00
21760;BME280;11041;50.854;20.580;2023-08-30T06:37:13;97609.50;;;19.18;100.00
21760;BME280;11041;50.854;20.580;2023-08-30T06:39:39;97599.56;;;19.24;100.00
21760;BME280;11041;50.854;20.580;2023-08-30T06:42:07;97604.34;;;19.27;100.00
21760;BME280;11041;50.854;20.580;2023-08-30T06:44:34;97604.72;;;19.26;100.00
21760;BME280;11041;50.854;20.580;2023-08-30T06:47:01;97593.59;;;19.22;100.00
21760;BME280;11041;50.854;20.580;2023-08-30T06:49:31;97604.34;;;19.20;100.00
21760;BME280;11041;50.854;20.580;2023-08-30T06:52:01;97597.56;;;19.14;100.00
21760;BME280;11041;50.854;20.580;2023-08-30T06:54:34;97599.56;;;19.13;100.00
21760;BME280;11041;50.854;20.580;2023-08-30T06:57:04;97595.59;;;19.18;100.00
21760;BME280;11041;50.854;20.580;2023-08-30T06:59:33;97604.34;;;19.20;100.00
21760;BME280;11041;50.854;20.580;2023-08-30T07:01:59;97608.28;;;19.26;100.00
21760;BME280;11041;50.854;20.580;2023-08-30T07:04:26;97615.88;;;19.29;100.00
21760;BME280;11041;50.854;20.580;2023-08-30T07:06:52;97615.47;;;19.34;100.00
21760;BME280;11041;50.854;20.580;2023-08-30T07:09:19;97619.00;;;19.42;100.00
21760;BME280;11041;50.854;20.580;2023-08-30T07:11:46;97624.19;;;19.51;100.00
21760;BME280;11041;50.854;20.580;2023-08-30T07:14:15;97627.72;;;19.58;100.00
21760;BME280;11041;50.854;20.580;2023-08-30T07:16:42;97627.31;;;19.64;100.00
21760;BME280;11041;50.854;20.580;2023-08-30T07:19:11;97623.34;;;19.68;100.00
21760;BME280;11041;50.854;20.580;2023-08-30T07:21:38;97626.50;;;19.67;100.00
21760;BME280;11041;50.854;20.580;2023-08-30T07:24:07;97620.16;;;19.70;100.00
21760;BME280;11041;50.854;20.580;2023-08-30T07:26:35;97634.47;;;19.75;100.00
21760;BME280;11041;50.854;20.580;2023-08-30T07:29:02;97631.25;;;19.81;100.00
21760;BME280;11041;50.854;20.580;2023-08-30T07:31:32;97636.03;;;19.84;100.00
21760;BME280;11041;50.854;20.580;2023-08-30T07:33:59;97632.81;;;19.89;100.00
21760;BME280;11041;50.854;20.580;2023-08-30T07:36:27;97635.59;;;19.92;100.00
21760;BME280;11041;50.854;20.580;2023-08-30T07:38:55;97639.56;;;19.95;100.00
21760;BME280;11041;50.854;20.580;2023-08-30T07:41:26;97635.97;;;20.02;100.00
21760;BME280;11041;50.854;20.580;2023-08-30T07:43:56;97630.00;;;19.96;100.00
21760;BME280;11041;50.854;20.580;2023-08-30T07:46:25;97635.97;;;19.98;100.00
21760;BME280;11041;50.854;20.580;2023-08-30T07:48:54;97637.56;;;19.95;100.00
21760;BME280;11041;50.854;20.580;2023-08-30T07:51:22;97634.38;;;19.93;100.00
21760;BME280;11041;50.854;20.580;2023-08-30T07:53:53;97635.56;;;19.96;100.00
21760;BME280;11041;50.854;20.580;2023-08-30T07:56:19;97631.19;;;19.98;100.00
21760;BME280;11041;50.854;20.580;2023-08-30T07:58:46;97627.59;;;19.98;100.00
21760;BME280;11041;50.854;20.580;2023-08-30T08:01:16;97632.00;;;19.99;100.00
21760;BME280;11041;50.854;20.580;2023-08-30T08:03:44;97629.19;;;20.03;100.00
21760;BME280;11041;50.854;20.580;2023-08-30T08:06:11;97623.19;;;20.08;100.00
21760;BME280;11041;50.854;20.580;2023-08-30T08:08:39;97625.19;;;20.07;100.00
21760;BME280;11041;50.854;20.580;2023-08-30T08:11:09;97628.75;;;20.08;100.00
21760;BME280;11041;50.854;20.580;2023-08-30T08:13:36;97636.72;;;20.09;100.00
21760;BME280;11041;50.854;20.580;2023-08-30T08:16:03;97639.16;;;20.04;100.00
21760;BME280;11041;50.854;20.580;2023-08-30T08:18:30;97634.78;;;19.99;100.00
21760;BME280;11041;50.854;20.580;2023-08-30T08:20:56;97634.38;;;20.00;100.00
21760;BME280;11041;50.854;20.580;2023-08-30T08:23:24;97639.94;;;20.04;100.00
21760;BME280;11041;50.854;20.580;2023-08-30T08:25:58;97645.50;;;20.00;100.00
21760;BME280;11041;50.854;20.580;2023-08-30T08:28:25;97641.97;;;19.96;100.00
21760;BME280;11041;50.854;20.580;2023-08-30T08:30:52;97643.19;;;19.92;100.00
21760;BME280;11041;50.854;20.580;2023-08-30T08:33:19;97646.34;;;19.94;100.00
21760;BME280;11041;50.854;20.580;2023-08-30T08:35:49;97642.34;;;19.98;100.00
21760;BME280;11041;50.854;20.580;2023-08-30T08:38:17;97641.19;;;19.92;100.00
21760;BME280;11041;50.854;20.580;2023-08-30T08:40:44;97638.38;;;19.89;100.00
21760;BME280;11041;50.854;20.580;2023-08-30T08:43:11;97645.19;;;19.84;100.00
21760;BME280;11041;50.854;20.580;2023-08-30T08:45:44;97639.25;;;19.82;100.00
21760;BME280;11041;50.854;20.580;2023-08-30T08:48:14;97637.25;;;19.83;100.00
21760;BME280;11041;50.854;20.580;2023-08-30T08:50:43;97631.66;;;19.79;100.00
21760;BME280;11041;50.854;20.580;2023-08-30T08:53:13;97638.06;;;19.72;100.00
21760;BME280;11041;50.854;20.580;2023-08-30T08:55:42;97633.69;;;19.64;100.00
21760;BME280;11041;50.854;20.580;2023-08-30T08:58:15;97629.31;;;19.59;100.00
21760;BME280;11041;50.854;20.580;2023-08-30T09:00:43;97638.88;;;19.58;100.00
21760;BME280;11041;50.854;20.580;2023-08-30T09:03:12;97651.22;;;19.50;100.00
21760;BME280;11041;50.854;20.580;2023-08-30T09:05:43;97654.47;;;19.27;100.00
21760;BME280;11041;50.854;20.580;2023-08-30T09:08:15;97641.38;;;18.88;100.00
21760;BME280;11041;50.854;20.580;2023-08-30T09:10:45;97643.69;;;18.58;100.00
21760;BME280;11041;50.854;20.580;2023-08-30T09:13:17;97654.78;;;18.36;100.00
21760;BME280;11041;50.854;20.580;2023-08-30T09:15:47;97661.91;;;18.26;100.00
21760;BME280;11041;50.854;20.580;2023-08-30T09:18:17;97655.09;;;18.09;100.00
21760;BME280;11041;50.854;20.580;2023-08-30T09:20:43;97656.63;;;17.96;100.00
21760;BME280;11041;50.854;20.580;2023-08-30T09:23:21;97652.63;;;17.86;100.00
21760;BME280;11041;50.854;20.580;2023-08-30T09:25:54;97650.22;;;17.81;100.00
21760;BME280;11041;50.854;20.580;2023-08-30T09:28:21;97655.34;;;17.79;100.00
21760;BME280;11041;50.854;20.580;2023-08-30T09:30:53;97669.22;;;17.76;100.00
21760;BME280;11041;50.854;20.580;2023-08-30T09:33:30;97660.84;;;17.72;100.00
21760;BME280;11041;50.854;20.580;2023-08-30T09:36:09;97662.06;;;17.71;100.00
21760;BME280;11041;50.854;20.580;2023-08-30T09:38:37;97656.88;;;17.70;100.00
21760;BME280;11041;50.854;20.580;2023-08-30T09:41:06;97666.44;;;17.76;100.00
21760;BME280;11041;50.854;20.580;2023-08-30T09:43:33;97665.66;;;17.75;100.00
21760;BME280;11041;50.854;20.580;2023-08-30T09:46:07;97673.66;;;17.80;100.00
21760;BME280;11041;50.854;20.580;2023-08-30T09:48:37;97663.72;;;17.83;100.00
21760;BME280;11041;50.854;20.580;2023-08-30T09:51:08;97666.88;;;17.81;100.00
21760;BME280;11041;50.854;20.580;2023-08-30T09:53:42;97665.34;;;17.87;100.00
21760;BME280;11041;50.854;20.580;2023-08-30T09:56:13;97669.75;;;17.99;100.00
21760;BME280;11041;50.854;20.580;2023-08-30T09:58:45;97673.78;;;18.09;100.00
21760;BME280;11041;50.854;20.580;2023-08-30T10:01:13;97682.91;;;18.13;100.00
21760;BME280;11041;50.854;20.580;2023-08-30T10:03:40;97680.97;;;18.21;100.00
21760;BME280;11041;50.854;20.580;2023-08-30T10:06:10;97686.13;;;18.26;100.00
21760;BME280;11041;50.854;20.580;2023-08-30T10:08:45;97690.88;;;18.25;100.00
21760;BME280;11041;50.854;20.580;2023-08-30T10:11:14;97698.06;;;18.34;100.00
21760;BME280;11041;50.854;20.580;2023-08-30T10:13:47;97694.13;;;18.38;100.00
21760;BME280;11041;50.854;20.580;2023-08-30T10:16:19;97697.31;;;18.44;100.00
21760;BME280;11041;50.854;20.580;2023-08-30T10:19:01;97692.53;;;18.44;100.00
21760;BME280;11041;50.854;20.580;2023-08-30T10:21:31;97694.91;;;18.42;100.00
21760;BME280;11041;50.854;20.580;2023-08-30T10:23:59;97702.88;;;18.40;100.00
21760;BME280;11041;50.854;20.580;2023-08-30T10:26:33;97710.44;;;18.50;100.00
21760;BME280;11041;50.854;20.580;2023-08-30T10:29:04;97719.59;;;18.55;100.00
21760;BME280;11041;50.854;20.580;2023-08-30T10:31:31;97714.44;;;18.60;100.00
21760;BME280;11041;50.854;20.580;2023-08-30T10:33:58;97720.41;;;18.66;100.00
21760;BME280;11041;50.854;20.580;2023-08-30T10:36:26;97720.00;;;18.64;100.00
21760;BME280;11041;50.854;20.580;2023-08-30T10:38:55;97721.97;;;18.52;100.00
21760;BME280;11041;50.854;20.580;2023-08-30T10:41:26;97727.94;;;18.47;100.00
21760;BME280;11041;50.854;20.580;2023-08-30T10:43:57;97731.09;;;18.46;100.00
21760;BME280;11041;50.854;20.580;2023-08-30T10:46:36;97728.69;;;18.41;100.00
21760;BME280;11041;50.854;20.580;2023-08-30T10:49:12;97730.66;;;18.33;100.00
21760;BME280;11041;50.854;20.580;2023-08-30T10:51:42;97725.09;;;18.33;100.00
21760;BME280;11041;50.854;20.580;2023-08-30T10:54:15;97725.44;;;18.24;100.00
21760;BME280;11041;50.854;20.580;2023-08-30T10:57:04;97731.44;;;18.34;100.00
21760;BME280;11041;50.854;20.580;2023-08-30T10:59:31;97734.59;;;18.28;100.00
21760;BME280;11041;50.854;20.580;2023-08-30T11:02:01;97725.09;;;18.33;100.00
21760;BME280;11041;50.854;20.580;2023-08-30T11:04:30;97730.66;;;18.33;100.00
21760;BME280;11041;50.854;20.580;2023-08-30T11:06:57;97725.88;;;18.37;100.00
21760;BME280;11041;50.854;20.580;2023-08-30T11:09:25;97720.34;;;18.41;100.00
21760;BME280;11041;50.854;20.580;2023-08-30T11:11:51;97719.53;;;18.37;100.00
21760;BME280;11041;50.854;20.580;2023-08-30T11:14:19;97727.91;;;18.44;100.00
21760;BME280;11041;50.854;20.580;2023-08-30T11:16:46;97727.13;;;18.50;100.00
21760;BME280;11041;50.854;20.580;2023-08-30T11:19:14;97725.91;;;18.44;100.00
21760;BME280;11041;50.854;20.580;2023-08-30T11:21:47;97724.72;;;18.38;100.00
21760;BME280;11041;50.854;20.580;2023-08-30T11:24:18;97718.34;;;18.30;100.00
21760;BME280;11041;50.854;20.580;2023-08-30T11:26:46;97727.47;;;18.31;100.00
21760;BME280;11041;50.854;20.580;2023-08-30T11:29:22;97725.09;;;18.33;100.00
21760;BME280;11041;50.854;20.580;2023-08-30T11:31:51;97720.69;;;18.32;100.00
21760;BME280;11041;50.854;20.580;2023-08-30T11:34:23;97723.09;;;18.37;100.00
21760;BME280;11041;50.854;20.580;2023-08-30T11:36:52;97713.19;;;18.40;100.00
21760;BME280;11041;50.854;20.580;2023-08-30T11:39:22;97715.97;;;18.36;100.00
21760;BME280;11041;50.854;20.580;2023-08-30T11:41:53;97705.25;;;18.42;100.00
21760;BME280;11041;50.854;20.580;2023-08-30T11:44:30;97710.00;;;18.38;100.00
21760;BME280;11041;50.854;20.580;2023-08-30T11:47:03;97712.34;;;18.25;100.00
21760;BME280;11041;50.854;20.580;2023-08-30T11:49:37;97719.47;;;18.22;100.00
21760;BME280;11041;50.854;20.580;2023-08-30T11:52:09;97713.47;;;18.13;100.00
21760;BME280;11041;50.854;20.580;2023-08-30T11:54:42;97718.66;;;18.15;100.00
21760;BME280;11041;50.854;20.580;2023-08-30T11:57:16;97709.09;;;18.05;100.00
21760;BME280;11041;50.854;20.580;2023-08-30T11:59:50;97709.03;;;17.94;100.00
21760;BME280;11041;50.854;20.580;2023-08-30T12:02:27;97706.56;;;17.82;100.00
21760;BME280;11041;50.854;20.580;2023-08-30T12:04:58;97714.53;;;17.87;100.00
21760;BME280;11041;50.854;20.580;2023-08-30T12:07:31;97701.50;;;17.95;100.00
21760;BME280;11041;50.854;20.580;2023-08-30T12:10:12;97701.91;;;18.00;100.00
21760;BME280;11041;50.854;20.580;2023-08-30T12:12:45;97699.56;;;18.09;100.00
21760;BME280;11041;50.854;20.580;2023-08-30T12:15:18;97706.81;;;18.28;100.00
21760;BME280;11041;50.854;20.580;2023-08-30T12:17:48;97701.31;;;18.53;100.00
21760;BME280;11041;50.854;20.580;2023-08-30T12:20:21;97702.53;;;18.60;100.00
21760;BME280;11041;50.854;20.580;2023-08-30T12:22:54;97711.28;;;18.69;100.00
21760;BME280;11041;50.854;20.580;2023-08-30T12:25:25;97713.25;;;18.65;100.00
21760;BME280;11041;50.854;20.580;2023-08-30T12:27:57;97714.81;;;18.48;100.00
21760;BME280;11041;50.854;20.580;2023-08-30T12:30:26;97715.94;;;18.29;100.00
21760;BME280;11041;50.854;20.580;2023-08-30T12:33:05;97705.56;;;18.19;100.00
21760;BME280;11041;50.854;20.580;2023-08-30T12:35:35;97710.72;;;18.17;100.00
21760;BME280;11041;50.854;20.580;2023-08-30T12:38:03;97706.75;;;18.18;100.00
21760;BME280;11041;50.854;20.580;2023-08-30T12:40:31;97714.69;;;18.16;100.00
21760;BME280;11041;50.854;20.580;2023-08-30T12:43:02;97708.28;;;18.04;100.00
21760;BME280;11041;50.854;20.580;2023-08-30T12:45:37;97703.53;;;18.08;100.00
21760;BME280;11041;50.854;20.580;2023-08-30T12:48:05;97707.16;;;18.20;100.00
21760;BME280;11041;50.854;20.580;2023-08-30T12:50:35;97714.38;;;18.42;100.00
21760;BME280;11041;50.854;20.580;2023-08-30T12:53:07;97717.59;;;18.51;100.00
21760;BME280;11041;50.854;20.580;2023-08-30T12:55:39;97721.59;;;18.68;100.00
21760;BME280;11041;50.854;20.580;2023-08-30T12:58:08;97710.06;;;18.63;100.00
21760;BME280;11041;50.854;20.580;2023-08-30T13:00:37;97720.38;;;18.51;100.00
21760;BME280;11041;50.854;20.580;2023-08-30T13:03:06;97715.59;;;18.45;100.00